Rogers, AR (72756)

3:22 AM CDT on March 24, 2017 (GMT -0500)
Hyland Park (Near Lake Atalanta) | | Change Station
Active Advisory: Wind Advisory

Elev 1381 ft 36.32 °N, 94.10 °W | Updated 10 seconds ago

Clear
Clear
67.5 °F
Feels Like 67.5 °F
N
7.0
Wind Variable Wind from East

Today
High -- | Low -- °F
--% Chance of Precip.
Yesterday
High -- | Low -- °F
Precip. -- in
Pressure 29.86 in
Visibility 10.0 miles
Clouds Clear
Dew Point 47 °F
Humidity 48%
Rainfall 0.00 in
Snow Depth Not available.
7:13 AM 7:31 PM
Waning Crescent, 17% visible
METAR KROG 240758Z AUTO 17018G23KT 10SM CLR 21/07 A2989 RMK AO2 PK WND 18026/0700 SLP110 T02060072
Pressure 29.86 in
Visibility 10.0 miles
Clouds Clear
Dew Point 47 °F
Humidity 48%
Rainfall 0.00 in
Snow Depth Not available.
7:13 AM 7:31 PM
Waning Crescent, 17% visible
METAR KROG 240758Z AUTO 17018G23KT 10SM CLR 21/07 A2989 RMK AO2 PK WND 18026/0700 SLP110 T02060072

Get Your Daily Forecast Email!

Thanks for signing up!

Be on the lookout for a verification email in your inbox.

You'll start receiving severe weather alerts in your inbox..

×

10-Day Weather Forecast

Almanac

Astronomy

Mar. 24, 2017 Rise Set
Actual Time
Civil Twilight
Nautical Twilight
Astronomical Twilight
Moon
Length of Visible Light
Length of Day
Tomorrow will be .
, % of the Moon is Illuminated

Today's Extremes

State Highs State Lows

Community

WunderPhotos

Upload Photos

1,962,540 photos uploaded!

WunderBlog® & News

Nearby

Air Quality

  Air Quality AQ Index Pollutant
Not available.

Snow Depth

Station Depth Elevation

Earthquake Activity

City Distance Mag. Time & Date
Minimum magnitude displayed is 2.5.

Earthquake Activity

City Distance Mag. Time & Date
Minimum magnitude displayed is 2.5.

Coastal Water Temperatures

Place Temperature

Stations

Nearby Weather Stations

Station Location Temp. Windchill Dew Point Humidity Wind Precip. Elev Updated Type
                   

Watches & Warnings

Wind Advisory
Issued: 3:15 AM CDT Mar. 24, 2017 – National Weather Service

... Wind Advisory in effect until 1 PM CDT this afternoon...

The National Weather Service in Tulsa has issued a Wind Advisory,
which is in effect until 1 PM CDT this afternoon.

* Winds... wind gusts 40 to 45 mph are possible.

* Impacts... winds this strong can make driving difficult, especially
for high profile vehicles.

Precautionary/preparedness actions...

Motorists should exercise caution while driving. Be alert to
sudden gusts of wind which may cause you to lose control of your
vehicle. Extra attention should be given to cross winds and on
bridges and overpasses.



Lacy